createdAt,value
2022-10-22T00:01:16.192Z,25.70
2022-10-22T00:03:44.012Z,30.40
2022-10-22T00:06:11.980Z,27.40
2022-10-22T00:08:40.038Z,26.10
2022-10-22T00:11:14.201Z,33.10
2022-10-22T00:13:42.377Z,27.50
2022-10-22T00:16:10.307Z,28.40
2022-10-22T00:18:39.133Z,27.30
2022-10-22T00:21:07.809Z,25.30
2022-10-22T00:23:35.585Z,28.90
2022-10-22T00:26:03.420Z,32.60
2022-10-22T00:28:31.254Z,29.30
2022-10-22T00:31:00.468Z,28.90
2022-10-22T00:33:29.478Z,29.80
2022-10-22T00:35:57.691Z,32.00
2022-10-22T00:38:25.919Z,31.20
2022-10-22T00:40:53.689Z,31.10
2022-10-22T00:43:22.193Z,30.20
2022-10-22T00:45:49.885Z,29.90
2022-10-22T00:48:26.112Z,29.60
2022-10-22T00:51:01.569Z,29.50
2022-10-22T00:53:38.433Z,30.60
2022-10-22T00:56:06.825Z,29.40
2022-10-22T00:58:37.813Z,28.20
2022-10-22T01:01:06.655Z,31.60
2022-10-22T01:03:34.518Z,31.90
2022-10-22T01:06:05.345Z,28.00
2022-10-22T01:08:39.118Z,32.10
2022-10-22T01:11:21.664Z,34.70
2022-10-22T01:17:00.368Z,29.40
2022-10-22T01:19:42.012Z,27.40
2022-10-22T01:22:20.840Z,28.70
2022-10-22T01:25:07.632Z,27.00
2022-10-22T01:28:15.847Z,28.50
2022-10-22T01:30:45.388Z,31.20
2022-10-22T01:33:16.123Z,28.10
2022-10-22T01:35:45.367Z,30.40
2022-10-22T01:38:17.938Z,30.50
2022-10-22T01:40:46.651Z,29.90
2022-10-22T01:43:15.251Z,29.70
2022-10-22T01:45:49.270Z,29.50
2022-10-22T01:48:44.731Z,26.90
2022-10-22T01:51:59.904Z,27.40
2022-10-22T01:54:48.045Z,27.50
2022-10-22T01:57:40.095Z,29.20
2022-10-22T02:00:10.341Z,27.30
2022-10-22T02:03:10.900Z,31.20
2022-10-22T02:05:48.500Z,29.70
2022-10-22T02:08:20.970Z,28.00
2022-10-22T02:10:49.832Z,26.90
2022-10-22T02:13:24.398Z,27.90
2022-10-22T02:15:53.663Z,26.60
2022-10-22T02:18:25.670Z,27.20
2022-10-22T02:20:53.806Z,26.90
2022-10-22T02:23:22.190Z,31.20
2022-10-22T02:25:57.971Z,29.60
2022-10-22T02:28:32.920Z,27.10
2022-10-22T02:31:07.595Z,28.90
2022-10-22T02:33:42.719Z,32.40
2022-10-22T02:36:10.855Z,26.70
2022-10-22T02:38:39.416Z,32.20
2022-10-22T02:41:07.199Z,30.70
2022-10-22T02:43:50.457Z,27.40
2022-10-22T02:46:18.300Z,25.20
2022-10-22T02:48:46.045Z,25.30
2022-10-22T02:51:13.849Z,29.50
2022-10-22T02:53:41.800Z,28.80
2022-10-22T02:56:09.991Z,33.10
2022-10-22T02:58:37.717Z,29.90
2022-10-22T03:01:06.048Z,30.40
2022-10-22T03:03:33.891Z,29.40
2022-10-22T03:06:01.688Z,29.10
2022-10-22T03:08:29.523Z,30.40
2022-10-22T03:10:57.315Z,37.20
2022-10-22T03:13:25.140Z,27.70
2022-10-22T03:15:52.941Z,30.80
2022-10-22T03:18:20.739Z,32.10
2022-10-22T03:20:48.640Z,35.10
2022-10-22T03:23:18.872Z,30.80
2022-10-22T03:25:48.139Z,30.40
2022-10-22T03:28:17.393Z,42.70
2022-10-22T03:30:45.134Z,31.80
2022-10-22T03:33:12.960Z,33.00
2022-10-22T03:35:45.011Z,40.90
2022-10-22T03:38:13.845Z,33.90
2022-10-22T03:40:42.855Z,32.70
2022-10-22T03:43:10.643Z,38.70
2022-10-22T03:50:38.598Z,34.40
2022-10-22T03:53:07.278Z,32.30
2022-10-22T03:55:35.035Z,34.10
2022-10-22T03:58:02.772Z,38.10
2022-10-22T04:00:30.595Z,41.70
2022-10-22T04:02:58.419Z,32.50
2022-10-22T04:05:26.200Z,38.10
2022-10-22T04:07:54.048Z,35.40
2022-10-22T04:10:21.744Z,41.90
2022-10-22T04:12:49.681Z,36.40
2022-10-22T04:15:18.029Z,38.60
2022-10-22T04:17:45.782Z,39.60
2022-10-22T04:20:13.545Z,39.80
2022-10-22T04:22:41.290Z,37.60
2022-10-22T04:25:09.653Z,35.60
2022-10-22T04:27:37.750Z,43.00
2022-10-22T04:30:06.910Z,37.60
2022-10-22T04:32:34.767Z,41.70
2022-10-22T04:35:02.859Z,46.10
2022-10-22T04:37:30.633Z,42.30
2022-10-22T04:39:58.788Z,44.20
2022-10-22T04:42:26.824Z,47.20
2022-10-22T04:44:54.622Z,42.40
2022-10-22T04:47:22.530Z,43.70
2022-10-22T04:49:50.345Z,45.70
2022-10-22T04:52:18.064Z,41.60
2022-10-22T04:54:47.056Z,46.30
2022-10-22T04:57:14.826Z,50.20
2022-10-22T04:59:42.595Z,45.90
2022-10-22T05:02:10.312Z,50.90
2022-10-22T05:04:38.017Z,49.30
2022-10-22T05:07:05.874Z,52.90
2022-10-22T05:09:33.553Z,50.40
2022-10-22T05:12:01.612Z,54.10
2022-10-22T05:14:29.432Z,46.20
2022-10-22T05:16:57.254Z,55.00
2022-10-22T05:19:31.067Z,52.00
2022-10-22T05:22:02.166Z,53.20
2022-10-22T05:24:31.400Z,51.10
2022-10-22T05:27:04.230Z,53.40
2022-10-22T05:31:59.921Z,46.80
2022-10-22T05:34:27.821Z,48.30
2022-10-22T05:36:55.786Z,50.30
2022-10-22T05:39:23.648Z,46.50
2022-10-22T05:41:51.663Z,52.20
2022-10-22T05:44:19.831Z,49.60
2022-10-22T05:46:47.698Z,48.10
2022-10-22T05:49:16.266Z,47.40
2022-10-22T05:51:44.083Z,47.50
2022-10-22T05:54:17.107Z,46.80
2022-10-22T05:56:45.062Z,45.60
2022-10-22T05:59:13.036Z,46.10
2022-10-22T06:01:41.415Z,46.00
2022-10-22T06:04:12.253Z,50.60
2022-10-22T06:06:44.796Z,52.00
2022-10-22T06:11:53.066Z,45.50
2022-10-22T06:14:21.984Z,40.40
2022-10-22T06:16:50.236Z,44.00
2022-10-22T06:19:31.808Z,44.50
2022-10-22T06:21:59.890Z,42.80
2022-10-22T06:24:35.570Z,43.00
2022-10-22T06:27:03.818Z,43.20
2022-10-22T06:29:31.914Z,38.50
2022-10-22T06:32:01.031Z,36.70
2022-10-22T06:34:28.823Z,35.80
2022-10-22T06:36:56.652Z,33.00
2022-10-22T06:39:27.653Z,32.00
2022-10-22T06:41:55.455Z,34.80
2022-10-22T06:44:23.329Z,31.70
2022-10-22T06:46:53.919Z,35.20
2022-10-22T06:49:22.178Z,31.20
2022-10-22T06:51:54.627Z,32.20
2022-10-22T06:54:23.433Z,33.40
2022-10-22T06:56:51.380Z,38.30
2022-10-22T06:59:20.631Z,30.70
2022-10-22T07:01:48.670Z,29.70
2022-10-22T07:04:16.612Z,31.00
2022-10-22T07:06:44.582Z,29.90
2022-10-22T07:09:12.574Z,33.70
2022-10-22T07:11:45.679Z,29.80
2022-10-22T07:14:14.787Z,31.50
2022-10-22T07:16:43.262Z,32.20
2022-10-22T07:19:11.662Z,29.10
2022-10-22T07:21:39.844Z,26.50
2022-10-22T07:24:08.219Z,28.70
2022-10-22T07:26:37.021Z,27.80
2022-10-22T07:29:05.382Z,27.30
2022-10-22T07:31:33.182Z,30.10
2022-10-22T07:34:00.936Z,31.20
2022-10-22T07:36:28.741Z,29.60
2022-10-22T07:38:59.421Z,28.00
2022-10-22T07:41:29.813Z,31.70
2022-10-22T07:43:58.314Z,28.80
2022-10-22T07:46:27.009Z,26.20
2022-10-22T07:48:55.118Z,31.90
2022-10-22T07:51:23.450Z,26.60
2022-10-22T07:53:51.512Z,26.70
2022-10-22T07:56:26.788Z,26.60
2022-10-22T07:58:54.608Z,25.10
2022-10-22T08:01:22.549Z,27.50
2022-10-22T08:03:50.612Z,28.50
2022-10-22T08:06:18.537Z,25.80
2022-10-22T08:08:46.635Z,24.00
2022-10-22T08:11:14.835Z,27.50
2022-10-22T08:13:45.521Z,25.70
2022-10-22T08:16:14.815Z,27.70
2022-10-22T08:18:43.018Z,28.70
2022-10-22T08:21:15.683Z,26.00
2022-10-22T08:23:44.157Z,29.50
2022-10-22T08:26:12.155Z,27.30
2022-10-22T08:28:40.002Z,33.50
2022-10-22T08:31:08.998Z,30.90
2022-10-22T08:33:38.872Z,26.50
2022-10-22T08:36:07.884Z,27.30
2022-10-22T08:38:36.137Z,27.00
2022-10-22T08:41:09.102Z,28.70
2022-10-22T08:44:56.035Z,28.20
2022-10-22T08:47:49.483Z,30.60
2022-10-22T08:50:24.416Z,29.30
2022-10-22T08:52:56.466Z,28.10
2022-10-22T08:55:25.330Z,24.80
2022-10-22T08:58:20.350Z,26.90
2022-10-22T09:00:59.770Z,30.00
2022-10-22T09:03:30.590Z,30.20
2022-10-22T09:06:11.989Z,26.70
2022-10-22T09:11:13.649Z,25.30
2022-10-22T09:13:43.997Z,33.60
2022-10-22T09:16:36.558Z,28.70
2022-10-22T09:19:16.486Z,25.90
2022-10-22T09:22:21.954Z,27.50
2022-10-22T09:24:58.252Z,29.10
2022-10-22T09:33:33.895Z,28.10
2022-10-22T09:36:03.770Z,29.70
2022-10-22T09:38:56.089Z,31.40
2022-10-22T09:41:30.118Z,31.20
2022-10-22T09:43:59.437Z,32.10
2022-10-22T09:46:30.518Z,29.90
2022-10-22T09:49:09.643Z,29.90
2022-10-22T09:52:00.731Z,27.70
2022-10-22T09:54:40.381Z,34.30
2022-10-22T09:57:22.229Z,30.70
2022-10-22T09:59:51.664Z,27.40
2022-10-22T10:02:39.220Z,28.60
2022-10-22T10:05:08.623Z,35.00
2022-10-22T10:07:37.249Z,31.90
2022-10-22T10:10:36.218Z,34.70
2022-10-22T10:13:49.228Z,30.60
2022-10-22T10:16:45.568Z,30.20
2022-10-22T10:20:03.703Z,32.70
2022-10-22T10:22:50.038Z,30.80
2022-10-22T10:25:36.256Z,31.50
2022-10-22T10:28:57.315Z,30.60
2022-10-22T10:31:49.622Z,32.70
2022-10-22T10:35:03.656Z,34.60
2022-10-22T10:37:40.716Z,31.10
2022-10-22T10:40:44.083Z,29.20
2022-10-22T10:43:44.131Z,38.40
2022-10-22T10:46:21.290Z,26.90
2022-10-22T10:48:53.932Z,34.50
2022-10-22T10:52:05.787Z,29.10
2022-10-22T10:54:55.364Z,34.70
2022-10-22T10:57:58.325Z,31.40
2022-10-22T11:00:28.089Z,31.60
2022-10-22T11:03:32.081Z,27.30
2022-10-22T11:06:25.660Z,29.30
2022-10-22T11:09:05.930Z,27.90
2022-10-22T11:11:44.670Z,28.30
2022-10-22T11:14:43.035Z,31.10
2022-10-22T11:17:15.157Z,28.60
2022-10-22T11:20:21.560Z,30.50
2022-10-22T11:23:23.301Z,30.90
2022-10-22T11:25:51.737Z,27.20
2022-10-22T11:28:29.944Z,28.60
2022-10-22T11:31:16.324Z,27.10
2022-10-22T11:34:09.795Z,28.10
2022-10-22T11:36:50.108Z,25.50
2022-10-22T11:39:59.904Z,32.80
2022-10-22T11:42:40.473Z,28.20
2022-10-22T11:45:14.548Z,28.90
2022-10-22T11:48:10.381Z,28.90
2022-10-22T11:50:41.327Z,26.80
2022-10-22T11:53:15.130Z,30.00
2022-10-22T11:56:07.734Z,29.50
2022-10-22T11:58:39.608Z,32.30
2022-10-22T12:01:07.383Z,31.20
2022-10-22T12:03:35.093Z,29.60
2022-10-22T12:06:18.445Z,33.60
2022-10-22T12:08:53.608Z,33.90
2022-10-22T12:11:47.981Z,31.90
2022-10-22T12:14:40.865Z,32.20
2022-10-22T12:17:14.585Z,28.10
2022-10-22T12:20:05.114Z,26.70
2022-10-22T12:22:40.183Z,31.70
2022-10-22T12:25:26.824Z,27.50
2022-10-22T12:28:01.079Z,37.80
2022-10-22T12:30:34.992Z,28.40
2022-10-22T12:33:19.294Z,29.50
2022-10-22T12:35:49.317Z,28.50
2022-10-22T12:38:27.373Z,30.50
2022-10-22T12:40:56.966Z,29.00
2022-10-22T12:43:31.957Z,27.60
2022-10-22T12:46:00.244Z,32.50
2022-10-22T12:48:39.223Z,28.00
2022-10-22T12:51:11.846Z,28.40
2022-10-22T12:56:24.494Z,33.80
2022-10-22T12:59:15.977Z,32.70
2022-10-22T13:01:44.113Z,29.00
2022-10-22T13:04:35.706Z,34.20
2022-10-22T13:07:24.896Z,33.90
2022-10-22T13:10:02.646Z,30.70
2022-10-22T13:12:39.461Z,31.50
2022-10-22T13:15:36.934Z,30.50
2022-10-22T13:18:16.906Z,28.40
2022-10-22T13:20:56.708Z,23.50
2022-10-22T13:23:28.750Z,27.60
2022-10-22T13:26:10.391Z,27.90
2022-10-22T13:28:41.522Z,27.20
2022-10-22T13:31:22.140Z,25.50
2022-10-22T13:34:08.408Z,25.80
2022-10-22T13:36:39.173Z,27.30
2022-10-22T13:39:21.917Z,23.70
2022-10-22T13:41:50.835Z,23.90
2022-10-22T13:44:19.955Z,25.90
2022-10-22T13:46:48.958Z,26.30
2022-10-22T13:49:19.530Z,27.40
2022-10-22T13:51:47.626Z,31.70
2022-10-22T13:54:20.202Z,25.50
2022-10-22T13:56:48.632Z,25.40
2022-10-22T13:59:18.514Z,21.70
2022-10-22T14:01:49.310Z,23.20
2022-10-22T14:04:17.304Z,23.60
2022-10-22T14:06:45.342Z,23.90
2022-10-22T14:09:16.202Z,26.00
2022-10-22T14:11:45.558Z,22.60
2022-10-22T14:14:17.307Z,26.70
2022-10-22T14:16:45.642Z,20.80
2022-10-22T14:19:17.905Z,21.00
2022-10-22T14:21:45.902Z,23.50
2022-10-22T14:24:13.835Z,25.20
2022-10-22T14:26:41.983Z,25.40
2022-10-22T14:29:11.007Z,21.90
2022-10-22T14:31:49.876Z,23.70
2022-10-22T14:34:17.918Z,25.10
2022-10-22T14:36:45.799Z,20.60
2022-10-22T14:39:14.212Z,25.90
2022-10-22T14:41:43.067Z,23.30
2022-10-22T14:44:14.901Z,22.00
2022-10-22T14:46:44.408Z,23.50
2022-10-22T14:49:15.673Z,27.60
2022-10-22T14:51:43.501Z,23.60
2022-10-22T14:54:11.241Z,27.30
2022-10-22T14:56:38.964Z,24.00
2022-10-22T14:59:06.746Z,23.30
2022-10-22T15:01:34.506Z,22.60
2022-10-22T15:04:02.281Z,21.50
2022-10-22T15:06:30.080Z,22.70
2022-10-22T15:08:57.881Z,27.60
2022-10-22T15:11:25.659Z,25.60
2022-10-22T15:13:53.487Z,23.70
2022-10-22T15:16:21.841Z,28.90
2022-10-22T15:18:49.710Z,26.20
2022-10-22T15:21:21.820Z,25.80
2022-10-22T15:23:50.028Z,29.10
2022-10-22T15:26:18.360Z,27.70
2022-10-22T15:28:46.353Z,28.80
2022-10-22T15:31:15.199Z,28.20
2022-10-22T15:33:43.877Z,28.00
2022-10-22T15:36:15.946Z,29.50
2022-10-22T15:38:43.971Z,29.70
2022-10-22T15:41:12.609Z,26.20
2022-10-22T15:43:40.415Z,31.00
2022-10-22T15:46:16.257Z,29.80
2022-10-22T15:48:44.477Z,35.90
2022-10-22T15:51:16.058Z,39.00
2022-10-22T15:53:44.243Z,40.30
2022-10-22T15:56:12.154Z,43.50
2022-10-22T15:58:40.095Z,40.80
2022-10-22T16:01:11.959Z,40.00
2022-10-22T16:03:42.038Z,43.10
2022-10-22T16:06:09.983Z,34.60
2022-10-22T16:08:38.675Z,37.40
2022-10-22T16:11:06.484Z,38.20
2022-10-22T16:13:36.905Z,35.50
2022-10-22T16:16:08.217Z,40.90
2022-10-22T16:18:36.039Z,64.10
2022-10-22T16:21:04.184Z,68.90
2022-10-22T16:23:31.949Z,51.40
2022-10-22T16:26:02.680Z,45.30
2022-10-22T16:28:30.684Z,42.30
2022-10-22T16:31:05.990Z,37.30
2022-10-22T16:33:41.515Z,37.20
2022-10-22T16:36:18.117Z,33.10
2022-10-22T16:38:47.388Z,30.90
2022-10-22T16:41:20.385Z,31.10
2022-10-22T16:43:50.456Z,32.30
2022-10-22T16:46:21.626Z,32.70
2022-10-22T16:48:52.394Z,36.70
2022-10-22T16:51:24.104Z,35.10
2022-10-22T16:53:53.287Z,37.40
2022-10-22T16:56:21.823Z,36.60
2022-10-22T16:58:55.905Z,38.20
2022-10-22T17:01:27.078Z,37.30
2022-10-22T17:03:55.811Z,33.10
2022-10-22T17:06:25.384Z,32.80
2022-10-22T17:08:53.769Z,36.70
2022-10-22T17:11:24.532Z,37.50
2022-10-22T17:13:54.309Z,32.70
2022-10-22T17:16:24.991Z,42.00
2022-10-22T17:18:56.378Z,39.10
2022-10-22T17:21:24.695Z,39.70
2022-10-22T17:23:57.322Z,40.60
2022-10-22T17:28:55.358Z,38.10
2022-10-22T17:31:38.147Z,44.00
2022-10-22T17:37:58.904Z,50.00
2022-10-22T17:40:27.140Z,51.10
2022-10-22T17:42:55.210Z,55.80
2022-10-22T17:45:24.180Z,57.80
2022-10-22T17:47:52.346Z,65.80
2022-10-22T17:50:20.342Z,51.90
2022-10-22T17:52:51.774Z,48.00
2022-10-22T17:55:20.600Z,53.10
2022-10-22T17:57:50.249Z,50.90
2022-10-22T18:02:52.679Z,43.40
2022-10-22T18:05:22.352Z,48.20
2022-10-22T18:07:54.325Z,48.00
2022-10-22T18:10:23.358Z,53.20
2022-10-22T18:12:52.219Z,50.10
2022-10-22T18:15:21.691Z,53.20
2022-10-22T18:17:50.537Z,49.50
2022-10-22T18:20:18.619Z,48.90
2022-10-22T18:22:46.742Z,46.70
2022-10-22T18:25:14.873Z,46.70
2022-10-22T18:27:43.280Z,45.80
2022-10-22T18:30:13.993Z,43.40
2022-10-22T18:32:41.894Z,42.50
2022-10-22T18:35:09.776Z,44.00
2022-10-22T18:37:39.752Z,45.60
2022-10-22T18:40:13.692Z,40.90
2022-10-22T18:42:42.982Z,42.90
2022-10-22T18:45:12.200Z,44.50
2022-10-22T18:47:41.799Z,48.10
2022-10-22T18:50:10.214Z,42.10
2022-10-22T18:52:38.649Z,46.70
2022-10-22T18:55:07.383Z,44.00
2022-10-22T18:57:35.314Z,44.40
2022-10-22T19:00:08.616Z,47.60
2022-10-22T19:02:41.020Z,44.50
2022-10-22T19:05:12.286Z,49.00
2022-10-22T19:07:41.412Z,45.50
2022-10-22T19:10:09.893Z,42.10
2022-10-22T19:12:37.907Z,47.20
2022-10-22T19:15:06.864Z,43.90
2022-10-22T19:17:35.113Z,44.70
2022-10-22T19:20:04.008Z,43.60
2022-10-22T19:22:32.454Z,47.30
2022-10-22T19:25:00.331Z,43.10
2022-10-22T19:27:28.299Z,49.70
2022-10-22T19:29:56.272Z,39.10
2022-10-22T19:32:26.307Z,44.90
2022-10-22T19:34:57.315Z,43.60
2022-10-22T19:37:25.255Z,45.30
2022-10-22T19:39:53.043Z,40.00
2022-10-22T19:42:21.005Z,55.40
2022-10-22T19:44:49.106Z,51.00
2022-10-22T19:47:18.351Z,48.70
2022-10-22T19:49:46.409Z,54.00
2022-10-22T19:52:15.057Z,50.90
2022-10-22T19:54:45.969Z,54.00
2022-10-22T19:57:15.911Z,46.00
2022-10-22T19:59:44.549Z,50.50
2022-10-22T20:02:18.028Z,45.60
2022-10-22T20:04:49.862Z,53.70
2022-10-22T20:07:18.391Z,50.20
2022-10-22T20:09:46.498Z,52.80
2022-10-22T20:12:17.139Z,49.70
2022-10-22T20:14:44.953Z,54.60
2022-10-22T20:17:12.956Z,51.20
2022-10-22T20:19:43.314Z,48.50
2022-10-22T20:22:14.980Z,50.80
2022-10-22T20:24:46.314Z,52.10
2022-10-22T20:27:21.561Z,49.20
2022-10-22T20:29:49.650Z,53.30
2022-10-22T20:32:17.617Z,56.90
2022-10-22T20:34:45.611Z,63.70
2022-10-22T20:37:13.825Z,50.10
2022-10-22T20:39:43.337Z,46.80
2022-10-22T20:42:11.694Z,45.40
2022-10-22T20:44:40.546Z,47.30
2022-10-22T20:47:09.617Z,47.90
2022-10-22T20:49:37.839Z,44.00
2022-10-22T20:52:05.988Z,43.20
2022-10-22T20:54:33.811Z,39.90
2022-10-22T20:57:01.724Z,45.70
2022-10-22T20:59:33.370Z,43.20
2022-10-22T21:02:03.197Z,43.40
2022-10-22T21:04:32.116Z,44.80
2022-10-22T21:07:00.048Z,49.00
2022-10-22T21:09:28.281Z,51.30
2022-10-22T21:11:57.116Z,49.90
2022-10-22T21:14:26.797Z,53.00
2022-10-22T21:16:56.793Z,50.80
2022-10-22T21:26:27.372Z,54.40
2022-10-22T21:32:00.733Z,51.50
2022-10-22T21:34:28.702Z,49.00
2022-10-22T21:36:56.592Z,42.00
2022-10-22T21:39:24.599Z,38.30
2022-10-22T21:41:52.554Z,35.20
2022-10-22T21:44:20.435Z,35.90
2022-10-22T21:46:48.397Z,43.30
2022-10-22T21:49:18.349Z,74.30
2022-10-22T21:51:46.331Z,62.30
2022-10-22T21:54:14.353Z,47.40
2022-10-22T21:56:42.497Z,51.80
2022-10-22T21:59:10.456Z,47.90
2022-10-22T22:01:38.474Z,55.60
2022-10-22T22:04:06.433Z,50.80
2022-10-22T22:06:35.325Z,55.00
2022-10-22T22:09:05.270Z,50.30
2022-10-22T22:11:33.868Z,50.90
2022-10-22T22:14:08.097Z,59.90
2022-10-22T22:16:36.485Z,46.70
2022-10-22T22:19:08.534Z,48.20
2022-10-22T22:21:39.543Z,50.60
2022-10-22T22:24:09.413Z,46.00
2022-10-22T22:26:39.634Z,53.00
2022-10-22T22:29:07.780Z,41.50
2022-10-22T22:31:37.506Z,47.90
2022-10-22T22:34:12.843Z,38.30
2022-10-22T22:36:45.560Z,41.90
2022-10-22T22:39:17.472Z,44.40
2022-10-22T22:41:46.728Z,39.40
2022-10-22T22:44:15.123Z,41.00
2022-10-22T22:46:43.661Z,43.40
2022-10-22T22:49:13.892Z,42.40
2022-10-22T22:51:43.679Z,38.90
2022-10-22T22:54:11.867Z,37.70
2022-10-22T22:56:40.506Z,42.00
2022-10-22T22:59:08.456Z,40.30
2022-10-22T23:01:38.543Z,35.70
2022-10-22T23:04:22.797Z,37.30
2022-10-22T23:06:51.815Z,32.10
2022-10-22T23:11:53.999Z,38.20
2022-10-22T23:14:21.909Z,32.50
2022-10-22T23:16:52.519Z,35.50
2022-10-22T23:19:22.776Z,36.40
2022-10-22T23:21:54.473Z,38.90
2022-10-22T23:24:26.754Z,32.30
2022-10-22T23:26:56.621Z,29.20
2022-10-22T23:29:28.368Z,31.60
2022-10-22T23:32:00.342Z,30.10
2022-10-22T23:34:29.415Z,29.20
2022-10-22T23:36:58.455Z,31.20
2022-10-22T23:39:28.802Z,38.60
2022-10-22T23:41:56.894Z,30.30
2022-10-22T23:44:25.458Z,32.70
2022-10-22T23:46:53.485Z,30.10
2022-10-22T23:49:21.659Z,29.40
2022-10-22T23:51:49.514Z,29.30
2022-10-22T23:54:18.723Z,27.30
2022-10-22T23:56:47.411Z,27.30
2022-10-22T23:59:15.942Z,29.00
